createdAt,value
2023-09-06T00:02:41.081Z,101921.56
2023-09-06T00:07:45.692Z,101914.06
2023-09-06T00:12:48.478Z,101909.41
2023-09-06T00:17:52.843Z,101918.72
2023-09-06T00:22:57.028Z,101913.88
2023-09-06T00:28:01.827Z,101906.63
2023-09-06T00:33:09.042Z,101917.09
2023-09-06T00:38:12.121Z,101930.16
2023-09-06T00:43:14.724Z,101923.72
2023-09-06T00:48:20.902Z,101921.00
2023-09-06T00:53:25.630Z,101920.81
2023-09-06T00:58:29.319Z,101922.25
2023-09-06T01:03:34.038Z,101927.06
2023-09-06T01:08:40.265Z,101931.06
2023-09-06T01:13:42.861Z,101929.06
2023-09-06T01:18:46.950Z,101924.44
2023-09-06T01:23:52.797Z,101928.44
2023-09-06T01:28:55.917Z,101939.59
2023-09-06T01:33:58.790Z,101933.06
2023-09-06T01:39:03.662Z,101941.75
2023-09-06T01:44:06.873Z,101937.25
2023-09-06T01:49:10.563Z,101935.22
2023-09-06T01:54:14.843Z,101936.72
2023-09-06T01:59:18.496Z,101943.44
2023-09-06T02:04:21.165Z,101953.25
2023-09-06T02:09:25.184Z,101948.28
2023-09-06T02:14:27.768Z,101944.88
2023-09-06T02:19:30.641Z,101956.69
2023-09-06T02:24:34.551Z,101956.09
2023-09-06T02:29:37.151Z,101949.19
2023-09-06T02:34:40.540Z,101954.28
2023-09-06T02:39:44.651Z,101962.00
2023-09-06T02:44:47.646Z,101946.84
2023-09-06T02:49:50.227Z,101943.13
2023-09-06T02:54:56.114Z,101950.06
2023-09-06T02:59:58.781Z,101967.72
2023-09-06T03:05:05.347Z,101964.78
2023-09-06T03:10:11.437Z,101961.00
2023-09-06T03:15:14.580Z,101965.06
2023-09-06T03:20:32.544Z,101974.47
2023-09-06T03:25:41.406Z,101972.69
2023-09-06T03:30:44.410Z,101972.00
2023-09-06T03:35:47.615Z,101974.59
2023-09-06T03:40:52.019Z,101978.56
2023-09-06T03:45:59.448Z,101975.63
2023-09-06T03:51:02.165Z,101975.31
2023-09-06T03:56:06.759Z,101987.31
2023-09-06T04:01:12.833Z,101992.53
2023-09-06T04:06:17.199Z,101987.22
2023-09-06T04:11:21.639Z,101985.47
2023-09-06T04:16:25.007Z,101985.47
2023-09-06T04:21:27.715Z,101989.97
2023-09-06T04:26:35.118Z,101978.50
2023-09-06T04:31:37.853Z,101979.47
2023-09-06T04:36:40.475Z,101967.91
2023-09-06T04:41:44.573Z,101979.13
2023-09-06T04:46:47.460Z,101984.22
2023-09-06T04:51:50.098Z,101984.06
2023-09-06T04:56:54.613Z,101989.19
2023-09-06T05:01:57.775Z,101986.63
2023-09-06T05:07:00.435Z,101990.03
2023-09-06T05:12:05.839Z,101985.56
2023-09-06T05:17:08.467Z,101992.69
2023-09-06T05:22:11.301Z,101990.78
2023-09-06T05:27:16.001Z,101990.72
2023-09-06T05:32:20.815Z,101998.91
2023-09-06T05:37:25.952Z,101993.88
2023-09-06T05:42:30.236Z,102002.25
2023-09-06T05:47:34.459Z,101993.84
2023-09-06T05:52:39.514Z,101997.13
2023-09-06T05:57:44.004Z,102011.03
2023-09-06T06:02:47.502Z,102023.09
2023-09-06T06:07:50.255Z,102027.09
2023-09-06T06:12:54.389Z,102035.63
2023-09-06T06:17:57.883Z,102033.66
2023-09-06T06:23:01.085Z,102034.22
2023-09-06T06:28:06.850Z,102042.97
2023-09-06T06:33:10.231Z,102040.31
2023-09-06T06:38:13.934Z,102048.50
2023-09-06T06:43:18.271Z,102042.63
2023-09-06T06:48:21.770Z,102044.75
2023-09-06T06:53:24.797Z,102038.94
2023-09-06T06:58:30.502Z,102053.53
2023-09-06T07:03:33.412Z,102059.09
2023-09-06T07:08:37.715Z,102049.75
2023-09-06T07:13:41.993Z,102060.97
2023-09-06T07:18:44.860Z,102063.97
2023-09-06T07:23:48.167Z,102070.81
2023-09-06T07:28:52.330Z,102071.97
2023-09-06T07:33:55.669Z,102076.72
2023-09-06T07:38:59.230Z,102068.25
2023-09-06T07:44:03.147Z,102077.22
2023-09-06T07:49:06.048Z,102075.34
2023-09-06T07:54:08.905Z,102085.13
2023-09-06T07:59:14.056Z,102086.78
2023-09-06T08:04:20.025Z,102087.66
2023-09-06T08:09:22.801Z,102092.63
2023-09-06T08:14:27.158Z,102082.34
2023-09-06T08:19:29.840Z,102085.47
2023-09-06T08:24:33.214Z,102089.22
2023-09-06T08:29:37.371Z,102076.94
2023-09-06T08:34:40.032Z,102079.94
2023-09-06T08:39:43.038Z,102091.03
2023-09-06T08:44:50.884Z,102096.59
2023-09-06T08:49:55.241Z,102094.13
2023-09-06T08:54:57.815Z,102093.53
2023-09-06T09:00:03.192Z,102097.34
2023-09-06T09:05:19.885Z,102093.91
2023-09-06T09:10:27.541Z,102100.53
2023-09-06T09:15:34.533Z,102105.09
2023-09-06T09:20:40.328Z,102114.97
2023-09-06T09:25:49.291Z,102104.25
2023-09-06T09:30:54.042Z,102107.00
2023-09-06T09:35:57.810Z,102104.31
2023-09-06T09:41:07.584Z,102107.97
2023-09-06T09:46:11.881Z,102102.56
2023-09-06T09:51:17.587Z,102102.56
2023-09-06T09:56:24.111Z,102100.69
2023-09-06T10:01:29.217Z,102091.50
2023-09-06T10:06:34.470Z,102094.13
2023-09-06T10:11:38.703Z,102095.75
2023-09-06T10:16:43.045Z,102091.03
2023-09-06T10:21:47.867Z,102087.41
2023-09-06T10:26:51.166Z,102086.59
2023-09-06T10:31:55.719Z,102089.22
2023-09-06T10:37:01.722Z,102081.56
2023-09-06T10:42:31.559Z,102090.19
2023-09-06T10:47:37.012Z,102083.22
2023-09-06T10:52:44.985Z,102080.72
2023-09-06T10:57:52.923Z,102083.53
2023-09-06T11:03:23.005Z,102078.72
2023-09-06T11:08:34.979Z,102077.75
2023-09-06T11:13:39.328Z,102071.16
2023-09-06T11:18:48.473Z,102068.06
2023-09-06T11:23:52.515Z,102072.75
2023-09-06T11:29:05.013Z,102071.69
2023-09-06T11:34:12.651Z,102067.81
2023-09-06T11:39:20.393Z,102065.63
2023-09-06T11:44:24.594Z,102064.13
2023-09-06T11:49:31.168Z,102063.31
2023-09-06T11:54:34.066Z,102064.28
2023-09-06T11:59:38.527Z,102057.22
2023-09-06T12:04:53.237Z,102050.06
2023-09-06T12:09:59.051Z,102066.13
2023-09-06T12:15:01.731Z,102055.88
2023-09-06T12:20:11.926Z,102059.44
2023-09-06T12:25:15.880Z,102044.13
2023-09-06T12:30:21.269Z,102041.06
2023-09-06T12:35:26.955Z,102040.34
2023-09-06T12:40:30.511Z,102034.00
2023-09-06T12:45:34.770Z,102024.97
2023-09-06T12:50:38.973Z,102019.66
2023-09-06T12:55:41.601Z,102013.44
2023-09-06T13:00:44.272Z,102005.06
2023-09-06T13:05:50.189Z,102005.06
2023-09-06T13:10:53.209Z,102005.38
2023-09-06T13:15:56.033Z,101996.09
2023-09-06T13:21:00.693Z,102007.25
2023-09-06T13:26:03.744Z,101994.59
2023-09-06T13:31:08.400Z,101998.81
2023-09-06T13:36:12.795Z,101998.97
2023-09-06T13:41:15.398Z,101996.34
2023-09-06T13:46:18.108Z,101986.56
2023-09-06T13:51:22.354Z,101990.06
2023-09-06T13:56:25.031Z,101988.88
2023-09-06T14:01:27.890Z,101985.56
2023-09-06T14:06:32.574Z,101983.19
2023-09-06T14:11:35.885Z,101978.28
2023-09-06T14:16:38.552Z,101969.88
2023-09-06T14:21:46.850Z,101972.66
2023-09-06T14:26:49.489Z,101973.13
2023-09-06T14:31:54.084Z,101972.78
2023-09-06T14:36:58.507Z,101981.47
2023-09-06T14:42:01.166Z,101968.38
2023-09-06T14:47:04.523Z,101972.22
2023-09-06T14:52:09.282Z,101970.88
2023-09-06T14:57:12.175Z,101978.34
2023-09-06T15:02:15.049Z,101967.63
2023-09-06T15:07:19.129Z,101971.00
2023-09-06T15:12:21.709Z,101969.69
2023-09-06T15:17:24.926Z,101965.28
2023-09-06T15:22:38.696Z,101969.22
2023-09-06T15:27:42.245Z,101972.97
2023-09-06T15:32:45.147Z,101974.13
2023-09-06T15:38:08.717Z,101975.25
2023-09-06T15:43:11.475Z,101978.09
2023-09-06T15:48:16.500Z,101980.16
2023-09-06T15:53:20.663Z,101980.34
2023-09-06T15:58:23.270Z,101976.97
2023-09-06T16:03:27.500Z,101974.38
2023-09-06T16:08:31.820Z,101978.22
2023-09-06T16:13:34.754Z,101971.22
2023-09-06T16:18:37.361Z,101978.56
2023-09-06T16:23:41.459Z,101980.63
2023-09-06T16:28:44.800Z,101994.47
2023-09-06T16:33:48.676Z,102000.16
2023-09-06T16:38:52.829Z,101994.97
2023-09-06T16:43:55.515Z,102002.38
2023-09-06T16:48:58.326Z,102009.59
2023-09-06T16:54:02.679Z,102012.38
2023-09-06T16:59:06.855Z,102012.38
2023-09-06T17:04:09.966Z,102025.88
2023-09-06T17:09:16.612Z,102031.22
2023-09-06T17:14:19.469Z,102037.47
2023-09-06T17:19:22.702Z,102039.09
2023-09-06T17:24:27.266Z,102045.13
2023-09-06T17:29:34.884Z,102050.25
2023-09-06T17:34:37.598Z,102058.03
2023-09-06T17:39:42.112Z,102058.56
2023-09-06T17:44:45.078Z,102062.72
2023-09-06T17:49:47.827Z,102073.19
2023-09-06T17:54:51.947Z,102078.19
2023-09-06T17:59:57.999Z,102081.50
2023-09-06T18:05:01.545Z,102085.59
2023-09-06T18:10:07.838Z,102101.28
2023-09-06T18:15:13.608Z,102103.59
2023-09-06T18:20:16.784Z,102106.69
2023-09-06T18:25:20.931Z,102105.25
2023-09-06T18:30:25.937Z,102115.63
2023-09-06T18:35:29.152Z,102116.22
2023-09-06T18:40:34.119Z,102121.06
2023-09-06T18:45:36.865Z,102122.31
2023-09-06T18:50:40.362Z,102134.47
2023-09-06T18:55:48.158Z,102139.69
2023-09-06T19:00:51.403Z,102140.63
2023-09-06T19:05:54.089Z,102144.13
2023-09-06T19:10:59.007Z,102147.31
2023-09-06T19:16:01.684Z,102148.78
2023-09-06T19:21:04.410Z,102149.50
2023-09-06T19:26:10.329Z,102154.56
2023-09-06T19:31:12.987Z,102153.16
2023-09-06T19:36:17.401Z,102151.84
2023-09-06T19:41:21.525Z,102160.38
2023-09-06T19:46:24.220Z,102163.78
2023-09-06T19:51:28.140Z,102162.59
2023-09-06T19:56:32.636Z,102170.56
2023-09-06T20:01:37.418Z,102174.13
2023-09-06T20:06:40.100Z,102179.50
2023-09-06T20:11:44.268Z,102186.25
2023-09-06T20:16:46.927Z,102189.44
2023-09-06T20:21:49.593Z,102176.63
2023-09-06T20:26:53.776Z,102188.78
2023-09-06T20:31:57.581Z,102186.78
2023-09-06T20:37:00.440Z,102178.72
2023-09-06T20:42:06.669Z,102184.66
2023-09-06T20:47:09.446Z,102183.34
2023-09-06T20:52:12.387Z,102189.31
2023-09-06T20:57:16.413Z,102197.28
2023-09-06T21:02:20.164Z,102194.31
2023-09-06T21:07:22.853Z,102199.44
2023-09-06T21:12:27.245Z,102201.81
2023-09-06T21:17:30.783Z,102201.50
2023-09-06T21:22:33.611Z,102208.47
2023-09-06T21:27:39.011Z,102206.47
2023-09-06T21:32:41.914Z,102204.31
2023-09-06T21:37:44.608Z,102209.31
2023-09-06T21:42:51.467Z,102212.53
2023-09-06T21:48:00.016Z,102212.94
2023-09-06T21:53:02.967Z,102216.56
2023-09-06T21:58:10.684Z,102218.75
2023-09-06T22:03:14.212Z,102231.59
2023-09-06T22:08:17.157Z,102238.31
2023-09-06T22:13:21.141Z,102238.19
2023-09-06T22:18:23.882Z,102238.56
2023-09-06T22:23:26.498Z,102250.75
2023-09-06T22:28:33.692Z,102251.16
2023-09-06T22:33:36.807Z,102249.88
2023-09-06T22:38:39.490Z,102248.03
2023-09-06T22:43:43.642Z,102241.81
2023-09-06T22:48:54.407Z,102247.84
2023-09-06T22:53:57.885Z,102243.09
2023-09-06T22:59:02.150Z,102234.97
2023-09-06T23:04:05.904Z,102244.63
2023-09-06T23:09:12.055Z,102254.28
2023-09-06T23:14:18.549Z,102249.59
2023-09-06T23:19:26.156Z,102249.19
2023-09-06T23:24:30.274Z,102244.38
2023-09-06T23:29:38.292Z,102250.47
2023-09-06T23:34:45.615Z,102242.03
2023-09-06T23:39:49.244Z,102238.28
2023-09-06T23:44:53.571Z,102243.97
2023-09-06T23:49:56.285Z,102256.06
2023-09-06T23:54:59.338Z,102247.00
